Forum - i mitici sud

tutti gli utenti del gruppo possono partecipare le discussione con riferimento a sesso o non conforme a chatta.it verranno imossi

Amministratore
F.ranco52 27/02/2020 ore 09:13 Quota

(nessuno) Nowcasting Giovedì 27 Febbraio 2020

Buongiorno a tutti


Notizie Meteo dell'Italia da il Meteo .It


http://ilMeteo.It


la Situazione Italiana vista dal Sat









il Radar Europeo









Brindisi

METAR LIBR 270650Z 26015KT 230V290 CAVOK 10/M03 Q1007=
ù
METAR di Brindisi del 27 alle 6,50z

Vento da 260° W SW 15 nodi (27,78 km) Visibilità 10000 m
Base delle Nubi e Visibilità OK
Temp 10°C Dew 3°C Ur 39% hPa 1007

Brindisi

TAF LIBR 270500Z 2706/2806 25018G28KT 9999 SCT020 BECMG 2711/2714 34012KT BECMG 2718/2720 24018G30KT=

le TAF di Brindisi delle 5z Previsioni dalle 6z alle 6z del 28

Vento da 250° W SW 18 nodi (33,336 km)
Raffiche daq 28 nodi (51,856 km)
Copertura 3-4 ottavi da 2000 piedi (609,6 m)
le Condizioni Diverranno fra le 11z e le 14z
Vento da 340° N NW 12 nodi (22,224 km)
le Condizioni Diverrano fra le 18z e le 20z
Vento da 240° W SW 18 nodi (33,336 km)
Raffiche da 30 nodi (55m56 km)


Gioia del Colle

METAR LIBV 270655Z 29020G35KT 9999 SCT035 06/M01 Q1007 RMK SCT VIS MIN 9999 WIND THR32 30023G35KT WIND THR14 29023G35KT BLU=

METAR di Gioia del Colle del 27 alle 6,55z

Vento da 290° W NW 20 nodi (37,04 km)
Raffiche da 35 nodi (64,82 km) Visibilità 10000 m
Copertura 3-4 ottavi da 3500 piedi (1066,8 m)
Temp 6°C Dew -1°C Ur 60% hPa 1007
Nuvolosità a 3-4 ottavi
Visibilità Minima 10000 m

Gioia del Colle

TAF LIBV 270500Z 2706/2715 29017KT 9999 FEW020 BECMG 2712/2714 35009KT=

le TAF di Gioia del Colle delle 5z Previsioni dalle 6z alle 15z

Vento da 290° W NW 17 nodi (31,48 km) Visibilità 10000 m
Copertura 1-2 ottavi da 2000 piedi (609,6 m)
le Condizionio Diverranno fra le 12z e le 14z
Vento da 350° N NW 9 nodi (16,668 km)
2659688
Buongiorno a tutti Notizie Meteo dell'Italia da il Meteo .It http://ilMeteo.It la Situazione Italiana vista dal Sat « immagine »...
Discussione
27/02/2020 09:13:40
none
  • mi piace
    iLikeIt
    PublicVote

Vuoi partecipare anche tu a questa discussione?

Rispondi per lasciare il tuo messaggio in questa discussione